createdAt,value
2022-09-25T00:01:02.958Z,3.97
2022-09-25T00:03:31.185Z,3.77
2022-09-25T00:06:03.564Z,4.27
2022-09-25T00:08:32.624Z,3.80
2022-09-25T00:11:00.501Z,4.07
2022-09-25T00:13:28.882Z,3.60
2022-09-25T00:16:00.064Z,4.10
2022-09-25T00:18:45.625Z,4.30
2022-09-25T00:21:14.747Z,4.20
2022-09-25T00:23:44.870Z,3.63
2022-09-25T00:26:13.043Z,4.37
2022-09-25T00:28:42.007Z,4.30
2022-09-25T00:31:15.391Z,4.47
2022-09-25T00:33:43.306Z,4.20
2022-09-25T00:36:12.205Z,4.40
2022-09-25T00:38:40.158Z,4.27
2022-09-25T00:41:11.995Z,4.13
2022-09-25T00:43:41.065Z,4.63
2022-09-25T00:46:10.777Z,4.73
2022-09-25T00:48:43.983Z,4.20
2022-09-25T00:51:12.060Z,4.00
2022-09-25T00:53:42.462Z,4.13
2022-09-25T00:56:13.446Z,4.73
2022-09-25T00:58:41.960Z,4.53
2022-09-25T01:01:10.374Z,4.97
2022-09-25T01:03:38.985Z,4.40
2022-09-25T01:06:09.147Z,4.50
2022-09-25T01:08:39.133Z,4.40
2022-09-25T01:11:07.500Z,4.57
2022-09-25T01:13:35.307Z,3.93
2022-09-25T01:16:08.610Z,3.77
2022-09-25T01:18:43.250Z,4.17
2022-09-25T01:21:30.679Z,3.97
2022-09-25T01:24:10.773Z,4.63
2022-09-25T01:26:48.897Z,4.43
2022-09-25T01:29:18.923Z,4.33
2022-09-25T01:31:49.761Z,3.87
2022-09-25T01:34:20.830Z,4.37
2022-09-25T01:36:50.294Z,4.70
2022-09-25T01:39:20.799Z,4.20
2022-09-25T01:41:50.989Z,4.23
2022-09-25T01:44:25.851Z,4.80
2022-09-25T01:46:58.589Z,5.10
2022-09-25T01:49:28.225Z,5.50
2022-09-25T01:51:57.666Z,5.80
2022-09-25T01:54:29.563Z,5.30
2022-09-25T01:56:59.944Z,5.70
2022-09-25T01:59:32.820Z,6.60
2022-09-25T02:02:03.532Z,8.73
2022-09-25T02:04:33.692Z,9.57
2022-09-25T02:07:06.008Z,8.70
2022-09-25T02:09:36.741Z,9.53
2022-09-25T02:12:07.376Z,9.57
2022-09-25T02:14:40.457Z,7.53
2022-09-25T02:17:10.457Z,9.20
2022-09-25T02:19:56.049Z,9.97
2022-09-25T02:22:25.781Z,12.30
2022-09-25T02:24:59.363Z,11.63
2022-09-25T02:27:27.880Z,12.00
2022-09-25T02:29:58.488Z,13.23
2022-09-25T02:32:28.220Z,11.90
2022-09-25T02:34:57.094Z,12.17
2022-09-25T02:37:27.170Z,11.13
2022-09-25T02:39:57.668Z,11.77
2022-09-25T02:42:30.251Z,10.17
2022-09-25T02:45:08.497Z,11.83
2022-09-25T02:47:41.136Z,11.80
2022-09-25T02:50:14.838Z,13.10
2022-09-25T02:52:48.422Z,11.83
2022-09-25T02:55:18.747Z,11.33
2022-09-25T02:57:50.253Z,11.50
2022-09-25T03:00:22.901Z,11.53
2022-09-25T03:02:53.810Z,10.30
2022-09-25T03:05:25.153Z,9.90
2022-09-25T03:08:10.734Z,10.20
2022-09-25T03:10:39.935Z,9.60
2022-09-25T03:13:14.836Z,10.53
2022-09-25T03:15:46.436Z,10.33
2022-09-25T03:18:14.400Z,10.43
2022-09-25T03:20:42.256Z,9.40
2022-09-25T03:23:11.361Z,9.60
2022-09-25T03:25:40.210Z,9.30
2022-09-25T03:28:10.926Z,9.60
2022-09-25T03:30:43.617Z,9.23
2022-09-25T03:33:13.544Z,9.27
2022-09-25T03:35:41.911Z,9.93
2022-09-25T03:38:10.550Z,8.97
2022-09-25T03:40:38.518Z,8.53
2022-09-25T03:45:33.301Z,9.87
2022-09-25T03:48:01.490Z,9.70
2022-09-25T03:50:31.102Z,8.90
2022-09-25T03:52:59.233Z,9.80
2022-09-25T03:55:27.686Z,10.23
2022-09-25T03:57:55.510Z,10.30
2022-09-25T04:00:24.060Z,10.10
2022-09-25T04:02:51.976Z,9.90
2022-09-25T04:05:22.689Z,10.37
2022-09-25T04:07:55.243Z,10.77
2022-09-25T04:10:23.149Z,10.00
2022-09-25T04:12:55.888Z,9.63
2022-09-25T04:15:24.439Z,9.70
2022-09-25T04:17:53.073Z,9.20
2022-09-25T04:20:20.867Z,9.20
2022-09-25T04:22:48.842Z,9.93
2022-09-25T04:25:24.441Z,9.23
2022-09-25T04:27:54.036Z,10.30
2022-09-25T04:30:22.315Z,9.43
2022-09-25T04:33:07.820Z,10.67
2022-09-25T04:35:36.795Z,10.20
2022-09-25T04:38:04.560Z,9.30
2022-09-25T04:40:33.794Z,10.73
2022-09-25T04:43:02.733Z,10.00
2022-09-25T04:45:31.114Z,10.27
2022-09-25T04:48:00.516Z,9.33
2022-09-25T04:50:28.727Z,9.57
2022-09-25T04:52:58.220Z,9.10
2022-09-25T04:55:27.372Z,10.40
2022-09-25T04:57:59.553Z,9.90
2022-09-25T05:00:28.755Z,10.30
2022-09-25T05:02:58.093Z,9.20
2022-09-25T05:05:29.419Z,10.20
2022-09-25T05:07:58.891Z,10.07
2022-09-25T05:10:28.242Z,9.20
2022-09-25T05:12:58.269Z,9.00
2022-09-25T05:15:26.440Z,8.30
2022-09-25T05:18:00.998Z,8.50
2022-09-25T05:20:29.674Z,9.00
2022-09-25T05:22:57.992Z,9.57
2022-09-25T05:25:26.209Z,8.37
2022-09-25T05:27:55.944Z,9.13
2022-09-25T05:30:25.466Z,9.50
2022-09-25T05:32:53.731Z,10.57
2022-09-25T05:35:23.752Z,8.83
2022-09-25T05:37:52.282Z,9.70
2022-09-25T05:40:21.308Z,10.37
2022-09-25T05:42:49.442Z,11.80
2022-09-25T05:45:18.327Z,11.23
2022-09-25T05:47:47.568Z,11.53
2022-09-25T05:50:16.565Z,11.40
2022-09-25T05:52:44.710Z,12.00
2022-09-25T05:55:12.706Z,11.23
2022-09-25T05:57:40.711Z,11.27
2022-09-25T06:00:10.192Z,11.73
2022-09-25T06:02:38.048Z,12.03
2022-09-25T06:05:09.424Z,9.93
2022-09-25T06:07:38.766Z,9.87
2022-09-25T06:10:07.574Z,10.83
2022-09-25T06:12:35.572Z,11.57
2022-09-25T06:15:04.854Z,11.63
2022-09-25T06:17:32.928Z,11.17
2022-09-25T06:20:00.899Z,10.73
2022-09-25T06:22:30.379Z,10.27
2022-09-25T06:24:59.636Z,10.63
2022-09-25T06:27:27.820Z,7.63
2022-09-25T06:29:56.021Z,10.50
2022-09-25T06:32:24.272Z,10.27
2022-09-25T06:34:53.648Z,10.13
2022-09-25T06:37:22.431Z,10.67
2022-09-25T06:39:51.659Z,9.13
2022-09-25T06:42:19.899Z,9.60
2022-09-25T06:44:47.802Z,10.30
2022-09-25T06:47:18.791Z,10.27
2022-09-25T06:49:48.100Z,10.17
2022-09-25T06:52:17.461Z,10.27
2022-09-25T06:54:45.425Z,9.07
2022-09-25T06:57:15.165Z,9.30
2022-09-25T06:59:43.266Z,9.30
2022-09-25T07:02:26.629Z,9.33
2022-09-25T07:04:54.894Z,8.87
2022-09-25T07:07:24.244Z,8.97
2022-09-25T07:09:52.641Z,8.53
2022-09-25T07:12:22.188Z,8.30
2022-09-25T07:14:50.170Z,9.10
2022-09-25T07:17:18.126Z,7.93
2022-09-25T07:19:46.437Z,7.57
2022-09-25T07:22:14.335Z,7.63
2022-09-25T07:24:42.763Z,7.20
2022-09-25T07:27:11.804Z,7.17
2022-09-25T07:29:42.436Z,7.97
2022-09-25T07:32:10.724Z,7.87
2022-09-25T07:34:38.915Z,9.27
2022-09-25T07:37:07.448Z,8.03
2022-09-25T07:39:36.007Z,7.57
2022-09-25T07:42:04.107Z,7.37
2022-09-25T07:44:37.920Z,7.53
2022-09-25T07:47:09.080Z,8.00
2022-09-25T07:49:36.993Z,8.60
2022-09-25T07:52:06.265Z,7.37
2022-09-25T07:54:34.850Z,7.03
2022-09-25T07:57:02.590Z,6.30
2022-09-25T07:59:30.369Z,7.27
2022-09-25T08:01:59.604Z,6.10
2022-09-25T08:04:28.764Z,5.90
2022-09-25T08:06:57.281Z,7.37
2022-09-25T08:09:26.301Z,6.53
2022-09-25T08:11:54.072Z,6.77
2022-09-25T08:14:26.925Z,7.07
2022-09-25T08:16:56.118Z,6.50
2022-09-25T08:19:24.200Z,6.03
2022-09-25T08:21:53.382Z,5.57
2022-09-25T08:24:21.171Z,6.33
2022-09-25T08:26:50.356Z,6.27
2022-09-25T08:29:18.576Z,6.90
2022-09-25T08:31:50.582Z,6.70
2022-09-25T08:34:40.226Z,6.53
2022-09-25T08:37:08.936Z,7.67
2022-09-25T08:39:37.047Z,6.70
2022-09-25T08:42:09.085Z,7.27
2022-09-25T08:44:39.019Z,6.50
2022-09-25T08:47:25.100Z,6.83
2022-09-25T08:50:01.823Z,6.63
2022-09-25T08:52:35.800Z,6.37
2022-09-25T08:55:03.745Z,5.33
2022-09-25T08:57:35.519Z,5.87
2022-09-25T09:00:05.863Z,5.53
2022-09-25T09:02:38.766Z,4.10
2022-09-25T09:05:09.003Z,3.83
2022-09-25T09:07:40.862Z,3.90
2022-09-25T09:10:12.231Z,3.10
2022-09-25T09:12:42.799Z,4.13
2022-09-25T09:15:20.544Z,3.10
2022-09-25T09:17:48.549Z,2.90
2022-09-25T09:20:18.729Z,3.27
2022-09-25T09:22:53.483Z,3.70
2022-09-25T09:25:29.539Z,4.00
2022-09-25T09:28:06.657Z,4.03
2022-09-25T09:30:37.692Z,3.93
2022-09-25T09:33:28.165Z,3.73
2022-09-25T09:36:02.403Z,3.07
2022-09-25T09:38:36.573Z,3.40
2022-09-25T09:41:18.717Z,3.97
2022-09-25T09:43:57.564Z,3.87
2022-09-25T09:46:30.114Z,4.23
2022-09-25T09:49:03.574Z,3.97
2022-09-25T09:51:34.285Z,3.27
2022-09-25T09:54:05.555Z,3.93
2022-09-25T09:56:36.370Z,4.20
2022-09-25T09:59:05.543Z,3.83
2022-09-25T10:01:41.262Z,3.40
2022-09-25T10:04:11.327Z,3.47
2022-09-25T10:06:40.332Z,4.10
2022-09-25T10:09:12.408Z,4.40
2022-09-25T10:11:42.679Z,3.80
2022-09-25T10:14:13.207Z,3.80
2022-09-25T10:16:41.177Z,3.93
2022-09-25T10:19:13.172Z,3.97
2022-09-25T10:21:42.533Z,3.70
2022-09-25T10:24:14.398Z,3.90
2022-09-25T10:26:42.445Z,3.67
2022-09-25T10:29:27.144Z,3.67
2022-09-25T10:31:58.745Z,3.87
2022-09-25T10:34:28.794Z,4.77
2022-09-25T10:36:56.659Z,3.43
2022-09-25T10:39:44.063Z,4.07
2022-09-25T10:42:27.517Z,3.90
2022-09-25T10:44:58.213Z,3.73
2022-09-25T10:47:49.668Z,3.67
2022-09-25T10:50:20.351Z,3.60
2022-09-25T10:52:53.077Z,3.43
2022-09-25T10:55:28.218Z,3.43
2022-09-25T10:58:01.058Z,3.33
2022-09-25T11:00:28.904Z,3.87
2022-09-25T11:02:57.830Z,3.07
2022-09-25T11:05:30.113Z,3.30
2022-09-25T11:07:59.649Z,3.10
2022-09-25T11:10:29.767Z,3.27
2022-09-25T11:12:58.564Z,3.10
2022-09-25T11:15:28.306Z,2.87
2022-09-25T11:17:57.525Z,2.80
2022-09-25T11:20:30.787Z,2.63
2022-09-25T11:23:05.187Z,3.13
2022-09-25T11:25:37.538Z,2.93
2022-09-25T11:28:10.724Z,2.87
2022-09-25T11:30:41.530Z,2.60
2022-09-25T11:33:14.952Z,3.10
2022-09-25T11:35:45.934Z,2.93
2022-09-25T11:38:18.496Z,2.70
2022-09-25T11:41:11.130Z,2.40
2022-09-25T11:43:47.044Z,2.30
2022-09-25T11:46:21.055Z,2.37
2022-09-25T11:48:55.807Z,2.37
2022-09-25T11:51:30.582Z,2.80
2022-09-25T11:54:25.191Z,2.67
2022-09-25T11:56:58.095Z,2.77
2022-09-25T11:59:33.940Z,2.87
2022-09-25T12:02:05.876Z,3.00
2022-09-25T12:04:41.737Z,2.53
2022-09-25T12:07:27.451Z,2.83
2022-09-25T12:10:04.327Z,2.80
2022-09-25T12:12:40.079Z,2.43
2022-09-25T12:15:15.252Z,2.57
2022-09-25T12:17:49.024Z,2.27
2022-09-25T12:20:23.117Z,2.57
2022-09-25T12:22:57.862Z,2.80
2022-09-25T12:25:34.120Z,2.37
2022-09-25T12:28:07.179Z,2.47
2022-09-25T12:30:39.495Z,2.23
2022-09-25T12:33:15.495Z,2.10
2022-09-25T12:35:47.838Z,2.10
2022-09-25T12:38:22.050Z,2.10
2022-09-25T12:40:52.961Z,1.90
2022-09-25T12:43:25.393Z,2.13
2022-09-25T12:45:55.723Z,2.00
2022-09-25T12:48:29.257Z,1.87
2022-09-25T12:51:05.475Z,2.30
2022-09-25T12:53:36.511Z,2.00
2022-09-25T12:56:07.848Z,2.23
2022-09-25T12:58:42.935Z,1.90
2022-09-25T13:01:12.799Z,2.03
2022-09-25T13:03:44.101Z,2.03
2022-09-25T13:06:16.049Z,2.20
2022-09-25T13:08:48.701Z,2.37
2022-09-25T13:11:18.460Z,1.97
2022-09-25T13:13:53.816Z,2.07
2022-09-25T13:16:22.362Z,1.87
2022-09-25T13:19:10.201Z,2.20
2022-09-25T13:21:39.240Z,2.00
2022-09-25T13:24:13.250Z,1.90
2022-09-25T13:26:46.720Z,1.83
2022-09-25T13:29:25.134Z,2.20
2022-09-25T13:31:54.611Z,2.05
2022-09-25T13:34:24.662Z,2.28
2022-09-25T13:36:54.469Z,2.20
2022-09-25T13:39:41.338Z,2.27
2022-09-25T13:42:15.026Z,2.13
2022-09-25T13:45:08.002Z,2.35
2022-09-25T13:47:53.805Z,2.37
2022-09-25T13:50:32.403Z,2.17
2022-09-25T13:53:18.412Z,1.80
2022-09-25T13:56:07.687Z,1.90
2022-09-25T13:58:51.563Z,2.38
2022-09-25T14:01:32.490Z,1.92
2022-09-25T14:04:00.590Z,2.47
2022-09-25T14:06:36.841Z,1.90
2022-09-25T14:09:09.551Z,2.10
2022-09-25T14:11:38.996Z,2.03
2022-09-25T14:14:09.269Z,2.17
2022-09-25T14:16:45.027Z,2.28
2022-09-25T14:19:18.399Z,2.22
2022-09-25T14:21:48.226Z,2.45
2022-09-25T14:24:20.644Z,2.22
2022-09-25T14:26:51.445Z,2.55
2022-09-25T14:29:23.206Z,2.20
2022-09-25T14:31:58.536Z,2.00
2022-09-25T14:34:45.127Z,2.47
2022-09-25T14:37:26.642Z,2.33
2022-09-25T14:40:04.024Z,2.63
2022-09-25T14:42:53.324Z,2.20
2022-09-25T14:45:26.625Z,2.08
2022-09-25T14:47:59.842Z,2.22
2022-09-25T14:50:30.482Z,2.05
2022-09-25T14:53:01.034Z,2.00
2022-09-25T14:55:33.786Z,2.05
2022-09-25T14:58:02.132Z,2.40
2022-09-25T15:00:30.281Z,2.20
2022-09-25T15:02:59.822Z,2.58
2022-09-25T15:05:32.949Z,2.25
2022-09-25T15:08:02.358Z,2.33
2022-09-25T15:10:31.201Z,2.47
2022-09-25T15:13:09.409Z,2.50
2022-09-25T15:15:39.444Z,2.38
2022-09-25T15:18:09.958Z,2.10
2022-09-25T15:20:38.197Z,1.83
2022-09-25T15:23:06.994Z,1.95
2022-09-25T15:25:36.588Z,2.67
2022-09-25T15:28:07.649Z,2.15
2022-09-25T15:30:37.219Z,1.92
2022-09-25T15:33:05.375Z,2.23
2022-09-25T15:35:34.855Z,2.50
2022-09-25T15:38:04.728Z,2.07
2022-09-25T15:40:33.122Z,2.43
2022-09-25T15:43:01.898Z,2.00
2022-09-25T15:45:38.227Z,2.43
2022-09-25T15:48:23.873Z,1.87
2022-09-25T15:50:54.415Z,2.00
2022-09-25T15:53:27.739Z,1.70
2022-09-25T15:56:04.168Z,1.90
2022-09-25T15:58:32.286Z,2.10
2022-09-25T16:01:18.492Z,1.80
2022-09-25T16:04:17.190Z,1.90
2022-09-25T16:06:46.782Z,2.53
2022-09-25T16:09:23.314Z,2.07
2022-09-25T16:11:51.895Z,2.10
2022-09-25T16:14:22.611Z,1.70
2022-09-25T16:16:53.256Z,2.30
2022-09-25T16:19:26.435Z,2.07
2022-09-25T16:21:55.754Z,2.07
2022-09-25T16:24:25.823Z,2.87
2022-09-25T16:26:55.314Z,2.80
2022-09-25T16:29:24.606Z,2.43
2022-09-25T16:31:53.438Z,2.40
2022-09-25T16:34:26.675Z,2.47
2022-09-25T16:36:58.590Z,2.47
2022-09-25T16:39:28.366Z,2.13
2022-09-25T16:41:56.836Z,1.90
2022-09-25T16:44:29.927Z,1.90
2022-09-25T16:47:12.720Z,5.13
2022-09-25T16:49:40.612Z,3.13
2022-09-25T16:52:09.727Z,2.73
2022-09-25T16:54:38.994Z,2.43
2022-09-25T16:57:07.232Z,3.43
2022-09-25T16:59:34.926Z,2.87
2022-09-25T17:02:03.996Z,2.03
2022-09-25T17:04:32.542Z,2.40
2022-09-25T17:07:00.258Z,2.80
2022-09-25T17:09:31.521Z,3.70
2022-09-25T17:12:01.300Z,3.87
2022-09-25T17:14:30.124Z,3.77
2022-09-25T17:16:59.100Z,2.70
2022-09-25T17:19:27.104Z,2.80
2022-09-25T17:21:56.221Z,2.50
2022-09-25T17:24:25.116Z,2.73
2022-09-25T17:26:54.706Z,3.40
2022-09-25T17:29:23.310Z,3.30
2022-09-25T17:31:51.209Z,4.17
2022-09-25T17:34:19.558Z,3.00
2022-09-25T17:36:47.317Z,3.50
2022-09-25T17:39:15.261Z,3.93
2022-09-25T17:41:43.445Z,4.00
2022-09-25T17:44:14.731Z,3.83
2022-09-25T17:46:42.786Z,4.23
2022-09-25T17:49:11.564Z,5.83
2022-09-25T17:51:39.877Z,4.17
2022-09-25T17:54:09.189Z,4.67
2022-09-25T17:56:39.552Z,4.00
2022-09-25T17:59:09.234Z,3.63
2022-09-25T18:01:40.130Z,3.90
2022-09-25T18:04:15.419Z,3.80
2022-09-25T18:06:44.027Z,3.50
2022-09-25T18:09:13.436Z,3.20
2022-09-25T18:11:44.250Z,3.87
2022-09-25T18:14:13.641Z,4.47
2022-09-25T18:16:43.519Z,5.13
2022-09-25T18:19:32.351Z,5.17
2022-09-25T18:22:19.429Z,3.83
2022-09-25T18:24:47.540Z,4.20
2022-09-25T18:27:17.389Z,4.27
2022-09-25T18:29:47.498Z,4.33
2022-09-25T18:32:16.878Z,3.60
2022-09-25T18:34:44.561Z,4.13
2022-09-25T18:37:12.730Z,4.33
2022-09-25T18:39:40.674Z,4.10
2022-09-25T18:42:08.550Z,4.90
2022-09-25T18:44:42.277Z,5.60
2022-09-25T18:47:10.912Z,10.67
2022-09-25T18:49:40.189Z,6.47
2022-09-25T18:52:08.112Z,7.80
2022-09-25T18:54:35.849Z,6.60
2022-09-25T18:57:03.815Z,5.57
2022-09-25T18:59:31.776Z,5.37
2022-09-25T19:02:00.250Z,7.20
2022-09-25T19:04:28.777Z,4.60
2022-09-25T19:06:58.460Z,5.03
2022-09-25T19:09:28.336Z,5.57
2022-09-25T19:11:56.674Z,5.47
2022-09-25T19:14:24.477Z,5.37
2022-09-25T19:16:53.263Z,5.33
2022-09-25T19:19:21.081Z,5.63
2022-09-25T19:21:49.082Z,6.10
2022-09-25T19:24:18.894Z,4.37
2022-09-25T19:26:48.112Z,4.77
2022-09-25T19:29:20.950Z,4.20
2022-09-25T19:31:48.819Z,3.67
2022-09-25T19:34:16.557Z,4.10
2022-09-25T19:36:44.839Z,3.70
2022-09-25T19:39:12.676Z,4.27
2022-09-25T19:41:43.426Z,5.33
2022-09-25T19:44:14.087Z,3.97
2022-09-25T19:46:43.613Z,4.90
2022-09-25T19:49:12.086Z,5.60
2022-09-25T19:51:40.467Z,5.63
2022-09-25T19:54:08.764Z,5.47
2022-09-25T19:56:41.073Z,5.80
2022-09-25T19:59:11.038Z,5.70
2022-09-25T20:01:41.166Z,5.60
2022-09-25T20:04:11.901Z,5.33
2022-09-25T20:06:42.269Z,5.30
2022-09-25T20:09:11.399Z,5.07
2022-09-25T20:11:39.536Z,5.67
2022-09-25T20:14:07.756Z,11.33
2022-09-25T20:16:37.771Z,5.80
2022-09-25T20:19:06.570Z,5.73
2022-09-25T20:21:35.171Z,5.20
2022-09-25T20:24:04.234Z,5.77
2022-09-25T20:26:32.878Z,5.40
2022-09-25T20:29:01.564Z,5.00
2022-09-25T20:31:30.692Z,4.43
2022-09-25T20:33:59.923Z,4.30
2022-09-25T20:36:27.923Z,4.43
2022-09-25T20:38:59.375Z,4.50
2022-09-25T20:41:27.815Z,4.80
2022-09-25T20:43:56.348Z,4.83
2022-09-25T20:46:26.996Z,3.80
2022-09-25T20:48:57.144Z,4.23
2022-09-25T20:51:28.656Z,4.20
2022-09-25T20:53:59.466Z,3.83
2022-09-25T20:56:28.835Z,4.37
2022-09-25T20:59:00.004Z,4.07
2022-09-25T21:01:29.398Z,4.13
2022-09-25T21:04:00.669Z,4.80
2022-09-25T21:06:30.542Z,4.37
2022-09-25T21:09:01.565Z,4.70
2022-09-25T21:11:30.692Z,4.07
2022-09-25T21:13:59.927Z,4.40
2022-09-25T21:16:29.257Z,3.50
2022-09-25T21:18:58.045Z,3.93
2022-09-25T21:21:26.932Z,4.70
2022-09-25T21:23:57.404Z,4.67
2022-09-25T21:26:26.047Z,4.77
2022-09-25T21:28:54.802Z,4.30
2022-09-25T21:31:24.065Z,4.47
2022-09-25T21:33:52.002Z,4.30
2022-09-25T21:36:20.477Z,4.67
2022-09-25T21:38:49.325Z,4.73
2022-09-25T21:41:20.773Z,4.43
2022-09-25T21:43:48.640Z,4.33
2022-09-25T21:46:18.671Z,4.53
2022-09-25T21:48:48.738Z,5.07
2022-09-25T21:51:17.199Z,4.43
2022-09-25T21:53:45.638Z,4.57
2022-09-25T21:56:14.482Z,4.40
2022-09-25T21:58:45.795Z,4.73
2022-09-25T22:01:14.995Z,5.40
2022-09-25T22:03:44.138Z,3.90
2022-09-25T22:06:13.648Z,4.27
2022-09-25T22:08:43.182Z,3.57
2022-09-25T22:11:11.549Z,4.63
2022-09-25T22:13:41.543Z,3.67
2022-09-25T22:16:11.972Z,4.03
2022-09-25T22:18:44.593Z,3.70
2022-09-25T22:21:13.642Z,4.30
2022-09-25T22:23:41.850Z,4.33
2022-09-25T22:26:10.079Z,4.07
2022-09-25T22:28:38.374Z,4.37
2022-09-25T22:31:08.349Z,4.20
2022-09-25T22:33:37.887Z,4.90
2022-09-25T22:36:06.761Z,4.73
2022-09-25T22:38:35.469Z,4.20
2022-09-25T22:41:03.787Z,5.00
2022-09-25T22:43:31.857Z,4.47
2022-09-25T22:45:59.732Z,4.60
2022-09-25T22:48:27.871Z,4.60
2022-09-25T22:50:58.084Z,4.37
2022-09-25T22:53:28.622Z,4.93
2022-09-25T22:55:56.511Z,4.57
2022-09-25T22:58:24.503Z,5.20
2022-09-25T23:00:53.596Z,4.70
2022-09-25T23:03:24.765Z,4.20
2022-09-25T23:05:54.333Z,4.37
2022-09-25T23:08:23.606Z,4.23
2022-09-25T23:11:06.593Z,4.53
2022-09-25T23:13:35.821Z,4.10
2022-09-25T23:16:05.756Z,3.97
2022-09-25T23:18:33.790Z,4.70
2022-09-25T23:21:03.436Z,4.17
2022-09-25T23:23:32.806Z,4.93
2022-09-25T23:26:02.200Z,3.93
2022-09-25T23:28:33.167Z,3.73
2022-09-25T23:31:05.763Z,3.43
2022-09-25T23:33:33.974Z,3.87
2022-09-25T23:36:03.785Z,4.07
2022-09-25T23:38:33.284Z,3.70
2022-09-25T23:41:01.244Z,3.87
2022-09-25T23:43:29.226Z,3.63
2022-09-25T23:45:58.262Z,3.80
2022-09-25T23:48:26.334Z,4.00
2022-09-25T23:50:54.176Z,4.30
2022-09-25T23:53:21.924Z,3.43
2022-09-25T23:55:51.168Z,3.33
2022-09-25T23:58:19.042Z,4.03
